sensor_id;sensor_type;location;lat;lon;timestamp;temperature;humidity
53264;DHT22;39153;52.680;6.172;2023-12-22T00:00:27;7.90;99.90
53264;DHT22;39153;52.680;6.172;2023-12-22T00:02:53;7.90;99.90
53264;DHT22;39153;52.680;6.172;2023-12-22T00:05:18;7.90;99.90
53264;DHT22;39153;52.680;6.172;2023-12-22T00:07:44;7.90;99.90
53264;DHT22;39153;52.680;6.172;2023-12-22T00:10:10;7.90;99.90
53264;DHT22;39153;52.680;6.172;2023-12-22T00:12:36;7.90;99.90
53264;DHT22;39153;52.680;6.172;2023-12-22T00:15:04;7.80;99.90
53264;DHT22;39153;52.680;6.172;2023-12-22T00:17:30;7.80;99.90
53264;DHT22;39153;52.680;6.172;2023-12-22T00:19:56;7.80;99.90
53264;DHT22;39153;52.680;6.172;2023-12-22T00:22:24;7.80;99.90
53264;DHT22;39153;52.680;6.172;2023-12-22T00:24:51;7.80;99.90
53264;DHT22;39153;52.680;6.172;2023-12-22T00:27:17;8.20;99.90
53264;DHT22;39153;52.680;6.172;2023-12-22T00:29:42;7.70;99.90
53264;DHT22;39153;52.680;6.172;2023-12-22T00:32:08;7.70;99.90
53264;DHT22;39153;52.680;6.172;2023-12-22T00:34:35;7.70;99.90
53264;DHT22;39153;52.680;6.172;2023-12-22T00:37:01;7.70;99.90
53264;DHT22;39153;52.680;6.172;2023-12-22T00:39:27;7.70;99.90
53264;DHT22;39153;52.680;6.172;2023-12-22T00:41:53;7.70;99.90
53264;DHT22;39153;52.680;6.172;2023-12-22T00:44:18;7.70;99.90
53264;DHT22;39153;52.680;6.172;2023-12-22T00:46:44;7.70;99.90
53264;DHT22;39153;52.680;6.172;2023-12-22T00:49:10;7.90;99.90
53264;DHT22;39153;52.680;6.172;2023-12-22T00:51:35;8.20;99.90
53264;DHT22;39153;52.680;6.172;2023-12-22T00:54:01;7.80;99.90
53264;DHT22;39153;52.680;6.172;2023-12-22T00:56:26;7.80;99.90
53264;DHT22;39153;52.680;6.172;2023-12-22T00:58:52;7.70;99.90
53264;DHT22;39153;52.680;6.172;2023-12-22T01:01:19;8.00;99.90
53264;DHT22;39153;52.680;6.172;2023-12-22T01:03:44;7.80;99.90
53264;DHT22;39153;52.680;6.172;2023-12-22T01:06:10;7.80;99.90
53264;DHT22;39153;52.680;6.172;2023-12-22T01:08:37;7.80;99.90
53264;DHT22;39153;52.680;6.172;2023-12-22T01:11:03;7.80;99.90
53264;DHT22;39153;52.680;6.172;2023-12-22T01:13:29;7.90;99.90
53264;DHT22;39153;52.680;6.172;2023-12-22T01:15:54;7.80;99.90
53264;DHT22;39153;52.680;6.172;2023-12-22T01:18:20;7.80;99.90
53264;DHT22;39153;52.680;6.172;2023-12-22T01:20:46;7.80;99.90
53264;DHT22;39153;52.680;6.172;2023-12-22T01:23:11;7.80;99.90
53264;DHT22;39153;52.680;6.172;2023-12-22T01:25:37;8.40;99.90
53264;DHT22;39153;52.680;6.172;2023-12-22T01:28:03;7.80;99.90
53264;DHT22;39153;52.680;6.172;2023-12-22T01:30:29;7.90;99.90
53264;DHT22;39153;52.680;6.172;2023-12-22T01:32:54;7.90;99.90
53264;DHT22;39153;52.680;6.172;2023-12-22T01:35:20;7.90;99.90
53264;DHT22;39153;52.680;6.172;2023-12-22T01:37:46;7.80;99.90
53264;DHT22;39153;52.680;6.172;2023-12-22T01:40:13;7.80;99.90
53264;DHT22;39153;52.680;6.172;2023-12-22T01:42:39;7.70;99.90
53264;DHT22;39153;52.680;6.172;2023-12-22T01:45:06;7.70;99.90
53264;DHT22;39153;52.680;6.172;2023-12-22T01:47:32;7.70;99.90
53264;DHT22;39153;52.680;6.172;2023-12-22T01:49:58;7.60;99.90
53264;DHT22;39153;52.680;6.172;2023-12-22T01:52:25;7.60;99.90
53264;DHT22;39153;52.680;6.172;2023-12-22T01:54:51;7.60;99.90
53264;DHT22;39153;52.680;6.172;2023-12-22T01:57:18;7.60;99.90
53264;DHT22;39153;52.680;6.172;2023-12-22T01:59:46;7.50;99.90
53264;DHT22;39153;52.680;6.172;2023-12-22T02:02:11;7.60;99.90
53264;DHT22;39153;52.680;6.172;2023-12-22T02:04:37;7.40;99.90
53264;DHT22;39153;52.680;6.172;2023-12-22T02:07:03;7.40;99.90
53264;DHT22;39153;52.680;6.172;2023-12-22T02:09:29;7.70;99.90
53264;DHT22;39153;52.680;6.172;2023-12-22T02:11:54;7.40;99.90
53264;DHT22;39153;52.680;6.172;2023-12-22T02:14:20;7.60;99.90
53264;DHT22;39153;52.680;6.172;2023-12-22T02:16:54;7.20;99.90
53264;DHT22;39153;52.680;6.172;2023-12-22T02:22:04;7.20;99.90
53264;DHT22;39153;52.680;6.172;2023-12-22T02:24:30;7.20;99.90
53264;DHT22;39153;52.680;6.172;2023-12-22T02:27:05;7.30;99.90
53264;DHT22;39153;52.680;6.172;2023-12-22T02:29:37;7.00;99.90
53264;DHT22;39153;52.680;6.172;2023-12-22T02:32:07;6.40;99.90
53264;DHT22;39153;52.680;6.172;2023-12-22T02:34:36;6.10;99.90
53264;DHT22;39153;52.680;6.172;2023-12-22T02:37:08;6.00;99.90
53264;DHT22;39153;52.680;6.172;2023-12-22T02:39:35;5.90;99.90
53264;DHT22;39153;52.680;6.172;2023-12-22T02:42:02;5.80;99.90
53264;DHT22;39153;52.680;6.172;2023-12-22T02:44:28;5.50;99.90
53264;DHT22;39153;52.680;6.172;2023-12-22T02:46:54;5.50;99.90
53264;DHT22;39153;52.680;6.172;2023-12-22T02:49:19;6.60;99.90
53264;DHT22;39153;52.680;6.172;2023-12-22T02:51:45;5.80;99.90
53264;DHT22;39153;52.680;6.172;2023-12-22T02:54:11;5.80;99.90
53264;DHT22;39153;52.680;6.172;2023-12-22T02:56:36;5.70;99.90
53264;DHT22;39153;52.680;6.172;2023-12-22T02:59:02;5.80;99.90
53264;DHT22;39153;52.680;6.172;2023-12-22T03:01:28;6.10;99.90
53264;DHT22;39153;52.680;6.172;2023-12-22T03:03:53;6.00;99.90
53264;DHT22;39153;52.680;6.172;2023-12-22T03:06:19;6.20;99.90
53264;DHT22;39153;52.680;6.172;2023-12-22T03:08:44;6.10;99.90
53264;DHT22;39153;52.680;6.172;2023-12-22T03:11:10;6.00;99.90
53264;DHT22;39153;52.680;6.172;2023-12-22T03:13:36;5.80;99.90
53264;DHT22;39153;52.680;6.172;2023-12-22T03:16:01;5.90;99.90
53264;DHT22;39153;52.680;6.172;2023-12-22T03:18:27;5.90;99.90
53264;DHT22;39153;52.680;6.172;2023-12-22T03:20:53;5.60;99.90
53264;DHT22;39153;52.680;6.172;2023-12-22T03:23:18;5.70;99.90
53264;DHT22;39153;52.680;6.172;2023-12-22T03:25:44;5.80;99.90
53264;DHT22;39153;52.680;6.172;2023-12-22T03:28:10;5.60;99.90
53264;DHT22;39153;52.680;6.172;2023-12-22T03:30:35;6.00;99.90
53264;DHT22;39153;52.680;6.172;2023-12-22T03:33:03;5.70;99.90
53264;DHT22;39153;52.680;6.172;2023-12-22T03:35:29;5.50;99.90
53264;DHT22;39153;52.680;6.172;2023-12-22T03:37:54;5.60;99.90
53264;DHT22;39153;52.680;6.172;2023-12-22T03:40:20;5.80;99.90
53264;DHT22;39153;52.680;6.172;2023-12-22T03:42:46;5.80;99.90
53264;DHT22;39153;52.680;6.172;2023-12-22T03:45:11;5.80;99.90
53264;DHT22;39153;52.680;6.172;2023-12-22T03:47:37;5.80;99.90
53264;DHT22;39153;52.680;6.172;2023-12-22T03:50:03;6.10;99.90
53264;DHT22;39153;52.680;6.172;2023-12-22T03:52:28;6.00;99.90
53264;DHT22;39153;52.680;6.172;2023-12-22T03:54:54;6.20;99.90
53264;DHT22;39153;52.680;6.172;2023-12-22T03:57:20;6.40;99.90
53264;DHT22;39153;52.680;6.172;2023-12-22T03:59:45;6.80;99.90
53264;DHT22;39153;52.680;6.172;2023-12-22T04:02:11;6.40;99.90
53264;DHT22;39153;52.680;6.172;2023-12-22T04:04:39;6.40;99.90
53264;DHT22;39153;52.680;6.172;2023-12-22T04:07:05;6.50;99.90
53264;DHT22;39153;52.680;6.172;2023-12-22T04:09:31;6.50;99.90
53264;DHT22;39153;52.680;6.172;2023-12-22T04:11:56;7.00;99.90
53264;DHT22;39153;52.680;6.172;2023-12-22T04:14:22;6.70;99.90
53264;DHT22;39153;52.680;6.172;2023-12-22T04:16:48;6.80;99.90
53264;DHT22;39153;52.680;6.172;2023-12-22T04:19:13;6.90;99.90
53264;DHT22;39153;52.680;6.172;2023-12-22T04:21:39;6.90;99.90
53264;DHT22;39153;52.680;6.172;2023-12-22T04:24:05;6.90;99.90
53264;DHT22;39153;52.680;6.172;2023-12-22T04:26:31;7.00;99.90
53264;DHT22;39153;52.680;6.172;2023-12-22T04:28:57;7.00;99.90
53264;DHT22;39153;52.680;6.172;2023-12-22T04:31:22;7.20;99.90
53264;DHT22;39153;52.680;6.172;2023-12-22T04:33:48;7.50;99.90
53264;DHT22;39153;52.680;6.172;2023-12-22T04:36:14;7.30;99.90
53264;DHT22;39153;52.680;6.172;2023-12-22T04:38:39;7.30;99.90
53264;DHT22;39153;52.680;6.172;2023-12-22T04:41:06;7.20;99.90
53264;DHT22;39153;52.680;6.172;2023-12-22T04:43:32;7.40;99.90
53264;DHT22;39153;52.680;6.172;2023-12-22T04:45:57;7.30;99.90
53264;DHT22;39153;52.680;6.172;2023-12-22T04:48:23;7.20;99.90
53264;DHT22;39153;52.680;6.172;2023-12-22T04:50:49;7.30;99.90
53264;DHT22;39153;52.680;6.172;2023-12-22T04:53:14;7.20;99.90
53264;DHT22;39153;52.680;6.172;2023-12-22T04:55:40;7.40;99.90
53264;DHT22;39153;52.680;6.172;2023-12-22T04:58:06;7.30;99.90
53264;DHT22;39153;52.680;6.172;2023-12-22T05:00:31;7.20;99.90
53264;DHT22;39153;52.680;6.172;2023-12-22T05:02:57;7.50;99.90
53264;DHT22;39153;52.680;6.172;2023-12-22T05:05:23;7.30;99.90
53264;DHT22;39153;52.680;6.172;2023-12-22T05:07:48;7.30;99.90
53264;DHT22;39153;52.680;6.172;2023-12-22T05:10:14;7.30;99.90
53264;DHT22;39153;52.680;6.172;2023-12-22T05:12:40;7.30;99.90
53264;DHT22;39153;52.680;6.172;2023-12-22T05:15:06;7.40;99.90
53264;DHT22;39153;52.680;6.172;2023-12-22T05:17:32;7.40;99.90
53264;DHT22;39153;52.680;6.172;2023-12-22T05:19:58;7.50;99.90
53264;DHT22;39153;52.680;6.172;2023-12-22T05:22:24;7.50;99.90
53264;DHT22;39153;52.680;6.172;2023-12-22T05:24:49;7.50;99.90
53264;DHT22;39153;52.680;6.172;2023-12-22T05:27:15;7.50;99.90
53264;DHT22;39153;52.680;6.172;2023-12-22T05:29:41;7.50;99.90
53264;DHT22;39153;52.680;6.172;2023-12-22T05:32:07;7.60;99.90
53264;DHT22;39153;52.680;6.172;2023-12-22T05:34:32;7.70;99.90
53264;DHT22;39153;52.680;6.172;2023-12-22T05:36:58;7.60;99.90
53264;DHT22;39153;52.680;6.172;2023-12-22T05:39:24;7.60;99.90
53264;DHT22;39153;52.680;6.172;2023-12-22T05:41:49;7.60;99.90
53264;DHT22;39153;52.680;6.172;2023-12-22T05:44:15;7.60;99.90
53264;DHT22;39153;52.680;6.172;2023-12-22T05:46:41;8.00;99.90
53264;DHT22;39153;52.680;6.172;2023-12-22T05:49:06;7.70;99.90
53264;DHT22;39153;52.680;6.172;2023-12-22T05:51:38;7.70;99.90
53264;DHT22;39153;52.680;6.172;2023-12-22T05:54:05;7.70;99.90
53264;DHT22;39153;52.680;6.172;2023-12-22T05:56:31;7.70;99.90
53264;DHT22;39153;52.680;6.172;2023-12-22T05:58:58;7.70;99.90
53264;DHT22;39153;52.680;6.172;2023-12-22T06:01:23;7.60;99.90
53264;DHT22;39153;52.680;6.172;2023-12-22T06:03:49;7.60;99.90
53264;DHT22;39153;52.680;6.172;2023-12-22T06:06:15;7.60;99.90
53264;DHT22;39153;52.680;6.172;2023-12-22T06:08:40;7.60;99.90
53264;DHT22;39153;52.680;6.172;2023-12-22T06:11:06;7.60;99.90
53264;DHT22;39153;52.680;6.172;2023-12-22T06:13:32;7.90;99.90
53264;DHT22;39153;52.680;6.172;2023-12-22T06:15:57;7.60;99.90
53264;DHT22;39153;52.680;6.172;2023-12-22T06:18:23;7.60;99.90
53264;DHT22;39153;52.680;6.172;2023-12-22T06:20:49;7.70;99.90
53264;DHT22;39153;52.680;6.172;2023-12-22T06:23:15;7.70;99.90
53264;DHT22;39153;52.680;6.172;2023-12-22T06:25:40;7.70;99.90
53264;DHT22;39153;52.680;6.172;2023-12-22T06:28:06;7.80;99.90
53264;DHT22;39153;52.680;6.172;2023-12-22T06:30:32;7.70;99.90
53264;DHT22;39153;52.680;6.172;2023-12-22T06:32:58;7.70;99.90
53264;DHT22;39153;52.680;6.172;2023-12-22T06:35:23;7.70;99.90
53264;DHT22;39153;52.680;6.172;2023-12-22T06:37:51;7.70;99.90
53264;DHT22;39153;52.680;6.172;2023-12-22T06:40:17;7.70;99.90
53264;DHT22;39153;52.680;6.172;2023-12-22T06:42:46;7.60;99.90
53264;DHT22;39153;52.680;6.172;2023-12-22T06:45:11;7.80;99.90
53264;DHT22;39153;52.680;6.172;2023-12-22T06:47:37;7.70;99.90
53264;DHT22;39153;52.680;6.172;2023-12-22T06:50:03;7.70;99.90
53264;DHT22;39153;52.680;6.172;2023-12-22T06:52:29;7.70;99.90
53264;DHT22;39153;52.680;6.172;2023-12-22T06:54:56;7.70;99.90
53264;DHT22;39153;52.680;6.172;2023-12-22T06:57:22;7.60;99.90
53264;DHT22;39153;52.680;6.172;2023-12-22T06:59:47;7.60;99.90
53264;DHT22;39153;52.680;6.172;2023-12-22T07:02:15;7.50;99.90
53264;DHT22;39153;52.680;6.172;2023-12-22T07:07:37;7.50;99.90
53264;DHT22;39153;52.680;6.172;2023-12-22T07:10:03;7.60;99.90
53264;DHT22;39153;52.680;6.172;2023-12-22T07:12:29;7.50;99.90
53264;DHT22;39153;52.680;6.172;2023-12-22T07:14:55;7.50;99.90
53264;DHT22;39153;52.680;6.172;2023-12-22T07:17:20;7.60;99.90
53264;DHT22;39153;52.680;6.172;2023-12-22T07:19:46;7.40;99.90
53264;DHT22;39153;52.680;6.172;2023-12-22T07:22:12;7.50;99.90
53264;DHT22;39153;52.680;6.172;2023-12-22T07:24:38;7.40;99.90
53264;DHT22;39153;52.680;6.172;2023-12-22T07:27:04;7.40;99.90
53264;DHT22;39153;52.680;6.172;2023-12-22T07:29:30;7.40;99.90
53264;DHT22;39153;52.680;6.172;2023-12-22T07:31:56;7.50;99.90
53264;DHT22;39153;52.680;6.172;2023-12-22T07:34:22;7.20;99.90
53264;DHT22;39153;52.680;6.172;2023-12-22T07:36:48;7.30;99.90
53264;DHT22;39153;52.680;6.172;2023-12-22T07:39:13;7.40;99.90
53264;DHT22;39153;52.680;6.172;2023-12-22T07:41:40;7.20;99.90
53264;DHT22;39153;52.680;6.172;2023-12-22T07:44:05;7.00;99.90
53264;DHT22;39153;52.680;6.172;2023-12-22T07:46:31;7.40;99.90
53264;DHT22;39153;52.680;6.172;2023-12-22T07:48:57;7.20;99.90
53264;DHT22;39153;52.680;6.172;2023-12-22T07:51:22;7.30;99.90
53264;DHT22;39153;52.680;6.172;2023-12-22T07:53:49;7.20;99.90
53264;DHT22;39153;52.680;6.172;2023-12-22T07:56:15;7.10;99.90
53264;DHT22;39153;52.680;6.172;2023-12-22T07:58:41;7.20;99.90
53264;DHT22;39153;52.680;6.172;2023-12-22T08:01:06;7.10;99.90
53264;DHT22;39153;52.680;6.172;2023-12-22T08:03:33;7.00;99.90
53264;DHT22;39153;52.680;6.172;2023-12-22T08:05:58;7.10;99.90
53264;DHT22;39153;52.680;6.172;2023-12-22T08:08:24;7.10;99.90
53264;DHT22;39153;52.680;6.172;2023-12-22T08:10:50;7.20;99.90
53264;DHT22;39153;52.680;6.172;2023-12-22T08:13:15;7.30;99.90
53264;DHT22;39153;52.680;6.172;2023-12-22T08:15:43;7.40;99.90
53264;DHT22;39153;52.680;6.172;2023-12-22T08:18:09;7.10;99.90
53264;DHT22;39153;52.680;6.172;2023-12-22T08:20:35;7.40;99.90
53264;DHT22;39153;52.680;6.172;2023-12-22T08:23:00;7.40;99.90
53264;DHT22;39153;52.680;6.172;2023-12-22T08:25:26;7.40;99.90
53264;DHT22;39153;52.680;6.172;2023-12-22T08:27:51;7.30;99.90
53264;DHT22;39153;52.680;6.172;2023-12-22T08:30:17;7.20;99.90
53264;DHT22;39153;52.680;6.172;2023-12-22T08:32:43;7.10;99.90
53264;DHT22;39153;52.680;6.172;2023-12-22T08:35:09;7.00;99.90
53264;DHT22;39153;52.680;6.172;2023-12-22T08:37:34;7.00;99.90
53264;DHT22;39153;52.680;6.172;2023-12-22T08:40:00;7.20;99.90
53264;DHT22;39153;52.680;6.172;2023-12-22T08:42:26;6.80;99.90
53264;DHT22;39153;52.680;6.172;2023-12-22T08:44:53;7.10;99.90
53264;DHT22;39153;52.680;6.172;2023-12-22T08:47:19;6.80;99.90
53264;DHT22;39153;52.680;6.172;2023-12-22T08:49:45;6.80;99.90
53264;DHT22;39153;52.680;6.172;2023-12-22T08:52:10;6.70;99.90
53264;DHT22;39153;52.680;6.172;2023-12-22T08:54:36;7.40;99.90
53264;DHT22;39153;52.680;6.172;2023-12-22T08:57:02;7.00;99.90
53264;DHT22;39153;52.680;6.172;2023-12-22T08:59:28;7.00;99.90
53264;DHT22;39153;52.680;6.172;2023-12-22T09:01:54;7.10;99.90
53264;DHT22;39153;52.680;6.172;2023-12-22T09:04:19;7.20;99.90
53264;DHT22;39153;52.680;6.172;2023-12-22T09:06:49;6.90;99.90
53264;DHT22;39153;52.680;6.172;2023-12-22T09:09:14;6.60;99.90
53264;DHT22;39153;52.680;6.172;2023-12-22T09:11:40;6.80;99.90
53264;DHT22;39153;52.680;6.172;2023-12-22T09:14:06;7.60;99.90
53264;DHT22;39153;52.680;6.172;2023-12-22T09:16:35;6.70;99.90
53264;DHT22;39153;52.680;6.172;2023-12-22T09:19:01;7.30;99.90
53264;DHT22;39153;52.680;6.172;2023-12-22T09:21:27;6.90;99.90
53264;DHT22;39153;52.680;6.172;2023-12-22T09:23:53;7.00;99.90
53264;DHT22;39153;52.680;6.172;2023-12-22T09:26:19;6.80;99.90
53264;DHT22;39153;52.680;6.172;2023-12-22T09:28:45;6.50;99.90
53264;DHT22;39153;52.680;6.172;2023-12-22T09:31:11;7.20;99.90
53264;DHT22;39153;52.680;6.172;2023-12-22T09:33:38;6.80;99.90
53264;DHT22;39153;52.680;6.172;2023-12-22T09:36:05;7.20;99.90
53264;DHT22;39153;52.680;6.172;2023-12-22T09:38:31;7.20;99.90
53264;DHT22;39153;52.680;6.172;2023-12-22T09:40:57;6.90;99.90
53264;DHT22;39153;52.680;6.172;2023-12-22T09:43:23;6.80;99.90
53264;DHT22;39153;52.680;6.172;2023-12-22T09:45:50;6.40;99.90
53264;DHT22;39153;52.680;6.172;2023-12-22T09:48:21;6.80;99.90
53264;DHT22;39153;52.680;6.172;2023-12-22T09:50:53;7.20;99.90
53264;DHT22;39153;52.680;6.172;2023-12-22T09:53:20;6.80;99.90
53264;DHT22;39153;52.680;6.172;2023-12-22T09:55:46;6.90;99.90
53264;DHT22;39153;52.680;6.172;2023-12-22T09:58:13;6.90;99.90
53264;DHT22;39153;52.680;6.172;2023-12-22T10:00:40;6.70;99.90
53264;DHT22;39153;52.680;6.172;2023-12-22T10:03:07;6.70;99.90
53264;DHT22;39153;52.680;6.172;2023-12-22T10:05:33;7.10;99.90
53264;DHT22;39153;52.680;6.172;2023-12-22T10:08:00;6.80;99.90
53264;DHT22;39153;52.680;6.172;2023-12-22T10:10:28;7.00;99.90
53264;DHT22;39153;52.680;6.172;2023-12-22T10:12:55;7.00;99.90
53264;DHT22;39153;52.680;6.172;2023-12-22T10:15:22;6.50;99.90
53264;DHT22;39153;52.680;6.172;2023-12-22T10:17:53;6.40;99.90
53264;DHT22;39153;52.680;6.172;2023-12-22T10:20:19;6.60;99.90
53264;DHT22;39153;52.680;6.172;2023-12-22T10:22:45;6.90;99.90
53264;DHT22;39153;52.680;6.172;2023-12-22T10:25:14;6.80;99.90
53264;DHT22;39153;52.680;6.172;2023-12-22T10:27:42;7.20;99.90
53264;DHT22;39153;52.680;6.172;2023-12-22T10:30:09;7.00;99.90
53264;DHT22;39153;52.680;6.172;2023-12-22T10:32:40;6.80;99.90
53264;DHT22;39153;52.680;6.172;2023-12-22T10:35:08;6.80;99.90
53264;DHT22;39153;52.680;6.172;2023-12-22T10:37:34;6.60;99.90
53264;DHT22;39153;52.680;6.172;2023-12-22T10:40:00;7.10;99.90
53264;DHT22;39153;52.680;6.172;2023-12-22T10:42:26;7.20;99.90
53264;DHT22;39153;52.680;6.172;2023-12-22T10:44:51;6.90;99.90
53264;DHT22;39153;52.680;6.172;2023-12-22T10:47:18;6.40;99.90
53264;DHT22;39153;52.680;6.172;2023-12-22T10:49:46;7.10;99.90
53264;DHT22;39153;52.680;6.172;2023-12-22T10:52:18;7.30;99.90
53264;DHT22;39153;52.680;6.172;2023-12-22T10:54:46;7.20;99.90
53264;DHT22;39153;52.680;6.172;2023-12-22T10:57:11;6.50;99.90
53264;DHT22;39153;52.680;6.172;2023-12-22T10:59:45;6.80;99.90
53264;DHT22;39153;52.680;6.172;2023-12-22T11:02:18;7.10;99.90
53264;DHT22;39153;52.680;6.172;2023-12-22T11:05:01;6.60;99.90
53264;DHT22;39153;52.680;6.172;2023-12-22T11:07:28;6.90;99.90
53264;DHT22;39153;52.680;6.172;2023-12-22T11:09:56;7.40;99.90
53264;DHT22;39153;52.680;6.172;2023-12-22T11:12:24;7.40;99.90
53264;DHT22;39153;52.680;6.172;2023-12-22T11:14:53;6.60;99.90
53264;DHT22;39153;52.680;6.172;2023-12-22T11:17:22;7.40;99.90
53264;DHT22;39153;52.680;6.172;2023-12-22T11:19:49;7.40;99.90
53264;DHT22;39153;52.680;6.172;2023-12-22T11:22:17;7.40;99.90
53264;DHT22;39153;52.680;6.172;2023-12-22T11:24:46;7.50;99.90
53264;DHT22;39153;52.680;6.172;2023-12-22T11:27:13;7.20;99.90
53264;DHT22;39153;52.680;6.172;2023-12-22T11:29:42;7.40;99.90
53264;DHT22;39153;52.680;6.172;2023-12-22T11:32:08;6.90;99.90
53264;DHT22;39153;52.680;6.172;2023-12-22T11:34:36;7.20;99.90
53264;DHT22;39153;52.680;6.172;2023-12-22T11:37:03;6.90;99.90
53264;DHT22;39153;52.680;6.172;2023-12-22T11:39:30;7.40;99.90
53264;DHT22;39153;52.680;6.172;2023-12-22T11:41:56;7.60;99.90
53264;DHT22;39153;52.680;6.172;2023-12-22T11:44:22;7.10;99.90
53264;DHT22;39153;52.680;6.172;2023-12-22T11:46:48;7.20;99.90
53264;DHT22;39153;52.680;6.172;2023-12-22T11:49:14;7.10;99.90
53264;DHT22;39153;52.680;6.172;2023-12-22T11:51:40;7.90;99.90
53264;DHT22;39153;52.680;6.172;2023-12-22T11:57:35;7.40;99.90
53264;DHT22;39153;52.680;6.172;2023-12-22T12:00:02;7.20;99.90
53264;DHT22;39153;52.680;6.172;2023-12-22T12:02:32;7.30;99.90
53264;DHT22;39153;52.680;6.172;2023-12-22T12:04:58;7.70;99.90
53264;DHT22;39153;52.680;6.172;2023-12-22T12:07:44;8.00;99.90
53264;DHT22;39153;52.680;6.172;2023-12-22T12:13:09;7.90;99.90
53264;DHT22;39153;52.680;6.172;2023-12-22T12:15:35;7.30;99.90
53264;DHT22;39153;52.680;6.172;2023-12-22T12:18:02;7.90;99.90
53264;DHT22;39153;52.680;6.172;2023-12-22T12:20:28;7.90;99.90
53264;DHT22;39153;52.680;6.172;2023-12-22T12:22:54;7.90;99.90
53264;DHT22;39153;52.680;6.172;2023-12-22T12:25:23;7.20;99.90
53264;DHT22;39153;52.680;6.172;2023-12-22T12:28:07;7.40;99.90
53264;DHT22;39153;52.680;6.172;2023-12-22T12:30:37;7.90;99.90
53264;DHT22;39153;52.680;6.172;2023-12-22T12:33:11;7.40;99.90
53264;DHT22;39153;52.680;6.172;2023-12-22T12:35:38;7.40;99.90
53264;DHT22;39153;52.680;6.172;2023-12-22T12:38:05;7.30;99.90
53264;DHT22;39153;52.680;6.172;2023-12-22T12:40:31;8.00;99.90
53264;DHT22;39153;52.680;6.172;2023-12-22T12:43:01;8.00;99.90
53264;DHT22;39153;52.680;6.172;2023-12-22T12:45:28;7.70;99.90
53264;DHT22;39153;52.680;6.172;2023-12-22T12:48:03;8.00;99.90
53264;DHT22;39153;52.680;6.172;2023-12-22T12:50:29;8.10;99.90
53264;DHT22;39153;52.680;6.172;2023-12-22T12:52:57;7.60;99.90
53264;DHT22;39153;52.680;6.172;2023-12-22T12:55:24;8.00;99.90
53264;DHT22;39153;52.680;6.172;2023-12-22T12:57:54;8.00;99.90
53264;DHT22;39153;52.680;6.172;2023-12-22T13:00:29;7.40;99.90
53264;DHT22;39153;52.680;6.172;2023-12-22T13:03:05;7.70;99.90
53264;DHT22;39153;52.680;6.172;2023-12-22T13:05:34;7.40;99.90
53264;DHT22;39153;52.680;6.172;2023-12-22T13:08:13;7.50;99.90
53264;DHT22;39153;52.680;6.172;2023-12-22T13:10:39;7.40;99.90
53264;DHT22;39153;52.680;6.172;2023-12-22T13:13:06;7.90;99.90
53264;DHT22;39153;52.680;6.172;2023-12-22T13:15:32;8.10;99.90
53264;DHT22;39153;52.680;6.172;2023-12-22T13:17:58;7.60;99.90
53264;DHT22;39153;52.680;6.172;2023-12-22T13:20:24;7.60;99.90
53264;DHT22;39153;52.680;6.172;2023-12-22T13:22:50;7.90;99.90
53264;DHT22;39153;52.680;6.172;2023-12-22T13:25:16;8.10;99.90
53264;DHT22;39153;52.680;6.172;2023-12-22T13:27:46;7.80;99.90
53264;DHT22;39153;52.680;6.172;2023-12-22T13:30:31;7.50;99.90
53264;DHT22;39153;52.680;6.172;2023-12-22T13:32:57;8.00;99.90
53264;DHT22;39153;52.680;6.172;2023-12-22T13:35:25;7.40;99.90
53264;DHT22;39153;52.680;6.172;2023-12-22T13:37:52;7.90;99.90
53264;DHT22;39153;52.680;6.172;2023-12-22T13:40:18;7.40;99.90
53264;DHT22;39153;52.680;6.172;2023-12-22T13:42:44;8.10;99.90
53264;DHT22;39153;52.680;6.172;2023-12-22T13:45:10;7.50;99.90
53264;DHT22;39153;52.680;6.172;2023-12-22T13:47:41;7.50;99.90
53264;DHT22;39153;52.680;6.172;2023-12-22T13:50:17;8.20;99.90
53264;DHT22;39153;52.680;6.172;2023-12-22T13:52:44;7.50;99.90
53264;DHT22;39153;52.680;6.172;2023-12-22T13:55:20;7.70;99.90
53264;DHT22;39153;52.680;6.172;2023-12-22T13:57:48;7.70;99.90
53264;DHT22;39153;52.680;6.172;2023-12-22T14:02:48;7.50;99.90
53264;DHT22;39153;52.680;6.172;2023-12-22T14:05:18;7.70;99.90
53264;DHT22;39153;52.680;6.172;2023-12-22T14:07:44;7.50;99.90
53264;DHT22;39153;52.680;6.172;2023-12-22T14:10:10;7.90;99.90
53264;DHT22;39153;52.680;6.172;2023-12-22T14:12:37;8.20;99.90
53264;DHT22;39153;52.680;6.172;2023-12-22T14:15:07;8.30;99.90
53264;DHT22;39153;52.680;6.172;2023-12-22T14:17:33;8.10;99.90
53264;DHT22;39153;52.680;6.172;2023-12-22T14:19:58;8.30;99.90
53264;DHT22;39153;52.680;6.172;2023-12-22T14:22:24;8.20;99.90
53264;DHT22;39153;52.680;6.172;2023-12-22T14:24:50;8.30;99.90
53264;DHT22;39153;52.680;6.172;2023-12-22T14:27:16;7.30;99.90
53264;DHT22;39153;52.680;6.172;2023-12-22T14:29:44;7.10;99.90
53264;DHT22;39153;52.680;6.172;2023-12-22T14:32:10;7.70;99.90
53264;DHT22;39153;52.680;6.172;2023-12-22T14:34:40;6.90;99.90
53264;DHT22;39153;52.680;6.172;2023-12-22T14:37:06;6.80;99.90
53264;DHT22;39153;52.680;6.172;2023-12-22T14:39:32;6.80;99.90
53264;DHT22;39153;52.680;6.172;2023-12-22T14:41:59;7.20;99.90
53264;DHT22;39153;52.680;6.172;2023-12-22T14:44:25;6.90;99.90
53264;DHT22;39153;52.680;6.172;2023-12-22T14:46:50;7.80;99.90
53264;DHT22;39153;52.680;6.172;2023-12-22T14:49:16;7.00;99.90
53264;DHT22;39153;52.680;6.172;2023-12-22T14:51:43;7.40;99.90
53264;DHT22;39153;52.680;6.172;2023-12-22T14:54:11;7.50;99.90
53264;DHT22;39153;52.680;6.172;2023-12-22T14:56:40;7.50;99.90
53264;DHT22;39153;52.680;6.172;2023-12-22T14:59:12;7.80;99.90
53264;DHT22;39153;52.680;6.172;2023-12-22T15:01:40;7.70;99.90
53264;DHT22;39153;52.680;6.172;2023-12-22T15:04:07;7.60;99.90
53264;DHT22;39153;52.680;6.172;2023-12-22T15:06:33;7.60;99.90
53264;DHT22;39153;52.680;6.172;2023-12-22T15:09:01;7.50;99.90
53264;DHT22;39153;52.680;6.172;2023-12-22T15:11:27;7.80;99.90
53264;DHT22;39153;52.680;6.172;2023-12-22T15:13:52;7.40;99.90
53264;DHT22;39153;52.680;6.172;2023-12-22T15:16:18;7.00;99.90
53264;DHT22;39153;52.680;6.172;2023-12-22T15:18:44;7.60;99.90
53264;DHT22;39153;52.680;6.172;2023-12-22T15:21:10;7.30;99.90
53264;DHT22;39153;52.680;6.172;2023-12-22T15:23:44;7.70;99.90
53264;DHT22;39153;52.680;6.172;2023-12-22T15:26:20;7.60;99.90
53264;DHT22;39153;52.680;6.172;2023-12-22T15:28:45;7.60;99.90
53264;DHT22;39153;52.680;6.172;2023-12-22T15:31:11;7.00;99.90
53264;DHT22;39153;52.680;6.172;2023-12-22T15:33:37;7.80;99.90
53264;DHT22;39153;52.680;6.172;2023-12-22T15:36:02;7.10;99.90
53264;DHT22;39153;52.680;6.172;2023-12-22T15:38:28;7.70;99.90
53264;DHT22;39153;52.680;6.172;2023-12-22T15:40:54;7.90;99.90
53264;DHT22;39153;52.680;6.172;2023-12-22T15:43:19;7.90;99.90
53264;DHT22;39153;52.680;6.172;2023-12-22T15:45:45;7.60;99.90
53264;DHT22;39153;52.680;6.172;2023-12-22T15:48:11;7.10;99.90
53264;DHT22;39153;52.680;6.172;2023-12-22T15:50:36;7.10;99.90
53264;DHT22;39153;52.680;6.172;2023-12-22T15:53:02;7.70;99.90
53264;DHT22;39153;52.680;6.172;2023-12-22T15:55:28;7.50;99.90